Time;durP1;ratioP1;P1;durP2;ratioP2;P2;SDS_P1;SDS_P2;PMS_P1;PMS_P2;Temp;Humidity;BMP_temperature;BMP_pressure;BME280_temperature;BME280_humidity;BME280_pressure;Samples;Min_cycle;Max_cycle;Signal;HPM_P1;HPM_P2
2021/04/02 00:01:00;;;;;;;54.33;34.83;;;333.00;1971.20;;;;;;5012070;28;20121;-86
2021/04/02 00:03:33;;;;;;;46.15;31.63;;;333.00;1971.20;;;;;;5012563;28;20026;-86
2021/04/02 00:05:59;;;;;;;57.63;32.28;;;333.00;1945.60;;;;;;5011882;28;20489;-86
2021/04/02 00:08:28;;;;;;;52.15;32.78;;;332.80;1996.80;;;;;;5004665;28;20026;-88
2021/04/02 00:10:55;;;;;;;51.75;29.65;;;307.80;2022.40;;;;;;5013684;28;20030;-88
2021/04/02 00:13:23;;;;;;;57.08;32.55;;;307.70;2048.00;;;;;;5009801;28;20371;-88
2021/04/02 00:15:49;;;;;;;50.28;29.20;;;307.70;2048.00;;;;;;5023396;28;20061;-88
2021/04/02 00:18:19;;;;;;;46.63;27.40;;;307.80;1996.80;;;;;;5014537;28;20034;-87
2021/04/02 00:20:45;;;;;;;50.95;29.63;;;308.00;2022.40;;;;;;5014027;28;20037;-86
2021/04/02 00:23:12;;;;;;;47.33;27.90;;;332.80;2022.40;;;;;;5007964;28;20026;-88
2021/04/02 00:25:39;;;;;;;50.00;29.60;;;308.10;1996.80;;;;;;5002485;28;20056;-92
2021/04/02 00:28:06;;;;;;;44.25;28.30;;;308.00;2022.40;;;;;;5012148;28;20056;-86
2021/04/02 00:30:41;;;;;;;55.45;32.35;;;308.00;1996.80;;;;;;5003231;28;20209;-87
2021/04/02 00:33:07;;;;;;;61.13;38.50;;;308.00;1996.80;;;;;;5000889;28;20097;-87
2021/04/02 00:35:34;;;;;;;63.15;37.30;;;308.00;1996.80;;;;;;5014051;28;20034;-87
2021/04/02 00:38:00;;;;;;;63.05;32.80;;;307.80;2048.00;;;;;;5011971;28;20022;-85
2021/04/02 00:40:45;;;;;;;54.92;30.42;;;307.60;2073.60;;;;;;5004669;28;20386;-87
2021/04/02 00:43:12;;;;;;;46.95;27.73;;;307.80;2022.40;;;;;;4999965;28;20037;-87
2021/04/02 00:45:39;;;;;;;67.10;39.05;;;307.80;2022.40;;;;;;5000700;28;20026;-87
2021/04/02 00:48:06;;;;;;;57.65;36.92;;;307.60;2022.40;;;;;;5000509;28;20052;-88
2021/04/02 00:50:43;;;;;;;59.20;36.70;;;307.70;2048.00;;;;;;5002147;28;20026;-87
2021/04/02 00:53:10;;;;;;;61.80;34.88;;;307.60;2073.60;;;;;;5004090;28;20499;-87
2021/04/02 00:55:37;;;;;;;62.92;36.25;;;307.50;2048.00;;;;;;5000359;28;20053;-88
2021/04/02 00:58:15;;;;;;;52.95;32.03;;;307.30;2124.80;;;;;;4999494;28;20037;-87
2021/04/02 01:00:41;;;;;;;54.75;30.63;;;307.30;2099.20;;;;;;4999744;28;20493;-87
2021/04/02 01:03:07;;;;;;;48.80;32.00;;;307.30;2099.20;;;;;;5000912;28;20022;-87
2021/04/02 01:05:45;;;;;;;47.17;30.08;;;307.30;2099.20;;;;;;5002068;28;20034;-87
2021/04/02 01:08:16;;;;;;;43.65;27.73;;;307.20;2124.80;;;;;;5001951;28;20022;-87
2021/04/02 01:10:55;;;;;;;46.95;28.77;;;282.30;2124.80;;;;;;4999232;28;20025;-87
2021/04/02 01:13:33;;;;;;;51.50;30.65;;;282.40;2124.80;;;;;;4999439;28;20029;-87
2021/04/02 01:16:09;;;;;;;50.60;30.33;;;282.50;2099.20;;;;;;5000487;28;20054;-87
2021/04/02 01:18:37;;;;;;;39.35;27.98;;;307.30;2124.80;;;;;;5004816;28;20053;-86
2021/04/02 01:21:15;;;;;;;45.70;29.40;;;282.40;2124.80;;;;;;5005739;28;20026;-88
2021/04/02 01:24:42;;;;;;;47.70;30.88;;;282.50;2124.80;;;;;;5002734;28;20022;-88
2021/04/02 01:27:29;;;;;;;48.92;31.85;;;282.40;2099.20;;;;;;4920749;29;20063;-89
2021/04/02 01:30:14;;;;;;;54.53;30.17;;;282.50;2099.20;;;;;;4939055;28;20073;-87
2021/04/02 01:35:33;;;;;;;43.15;27.38;;;282.50;2099.20;;;;;;5002006;23;20054;-87
2021/04/02 01:38:07;;;;;;;44.95;27.40;;;282.10;2124.80;;;;;;4979127;28;20482;-87
2021/04/02 01:40:35;;;;;;;52.03;27.48;;;282.20;2124.80;;;;;;4979563;28;20058;-89
2021/04/02 01:43:06;;;;;;;47.67;27.45;;;282.30;2124.80;;;;;;4982350;28;20030;-89
2021/04/02 01:45:32;;;;;;;40.45;25.25;;;282.10;2124.80;;;;;;5002405;28;20061;-87
2021/04/02 01:48:05;;;;;;;40.33;25.88;;;282.10;2150.40;;;;;;4986125;28;20586;-87
2021/04/02 01:50:32;;;;;;;44.17;25.35;;;282.00;2150.40;;;;;;4985593;28;20026;-90
2021/04/02 01:52:59;;;;;;;46.08;26.45;;;282.20;2124.80;;;;;;4985986;28;20026;-91
2021/04/02 01:55:26;;;;;;;39.83;25.23;;;281.60;2201.60;;;;;;5003695;28;20042;-88
2021/04/02 01:58:02;;;;;;;37.75;23.95;;;281.70;2201.60;;;;;;4985644;28;20031;-87
2021/04/02 02:00:45;;;;;;;42.67;24.20;;;281.80;2227.20;;;;;;4984097;28;20371;-87
2021/04/02 02:03:13;;;;;;;40.38;24.40;;;281.70;2176.00;;;;;;4979809;28;20093;-87
2021/04/02 02:05:39;;;;;;;36.65;23.85;;;281.90;2176.00;;;;;;4982089;28;20035;-87
2021/04/02 02:08:06;;;;;;;30.60;21.55;;;281.60;2201.60;;;;;;4980113;28;20026;-87
2021/04/02 02:10:34;;;;;;;32.80;21.98;;;281.90;2176.00;;;;;;4978665;28;20431;-87
2021/04/02 02:13:03;;;;;;;39.38;23.42;;;281.90;2150.40;;;;;;4979011;28;20019;-88
2021/04/02 02:15:30;;;;;;;37.88;21.42;;;282.00;2150.40;;;;;;4982171;28;20054;-87
2021/04/02 02:17:59;;;;;;;30.35;20.15;;;281.90;2124.80;;;;;;4982689;28;20033;-87
2021/04/02 02:20:28;;;;;;;37.63;22.55;;;282.00;2176.00;;;;;;4980095;28;20486;-87
2021/04/02 02:22:56;;;;;;;37.72;22.90;;;281.90;2176.00;;;;;;4983436;28;20018;-87
2021/04/02 02:25:24;;;;;;;33.60;22.65;;;281.90;2176.00;;;;;;5002300;28;20026;-86
2021/04/02 02:27:51;;;;;;;34.30;22.08;;;281.90;2176.00;;;;;;5002387;28;20018;-88
2021/04/02 02:30:21;;;;;;;37.50;23.02;;;282.10;2150.40;;;;;;5002323;28;20042;-87
2021/04/02 02:32:51;;;;;;;43.72;24.17;;;282.20;2124.80;;;;;;5002028;28;20094;-87
2021/04/02 02:35:16;;;;;;;40.40;22.17;;;281.90;2176.00;;;;;;5001789;28;20058;-87
2021/04/02 02:37:44;;;;;;;36.92;23.67;;;282.00;2150.40;;;;;;5002054;28;20161;-86
2021/04/02 02:40:22;;;;;;;45.35;27.02;;;281.90;2201.60;;;;;;4992936;28;20038;-87
2021/04/02 02:42:49;;;;;;;41.90;25.08;;;256.80;2227.20;;;;;;4999330;28;20031;-87
2021/04/02 02:45:16;;;;;;;40.50;22.75;;;256.90;2227.20;;;;;;4981996;28;20049;-87
2021/04/02 02:47:42;;;;;;;39.30;24.35;;;281.60;2227.20;;;;;;4980988;28;20089;-88
2021/04/02 02:50:11;;;;;;;41.60;24.77;;;281.60;2227.20;;;;;;4980966;28;20425;-86
2021/04/02 02:52:39;;;;;;;38.67;22.73;;;281.70;2201.60;;;;;;4979503;28;20022;-87
2021/04/02 02:55:07;;;;;;;40.17;25.20;;;281.80;2201.60;;;;;;4979727;28;20491;-87
2021/04/02 02:57:35;;;;;;;46.28;26.15;;;282.00;2176.00;;;;;;4979581;28;20126;-91
2021/04/02 03:00:12;;;;;;;43.28;25.17;;;282.00;2201.60;;;;;;4994605;28;20026;-87
2021/04/02 03:02:39;;;;;;;50.55;30.00;;;282.00;2176.00;;;;;;4994517;28;20023;-86
2021/04/02 03:05:07;;;;;;;45.53;27.13;;;282.10;2176.00;;;;;;4978458;28;20027;-86
2021/04/02 03:07:37;;;;;;;44.13;26.50;;;282.00;2176.00;;;;;;4978192;28;20117;-87
2021/04/02 03:10:08;;;;;;;39.60;24.25;;;281.70;2227.20;;;;;;4978566;28;20046;-87
2021/04/02 03:12:39;;;;;;;46.58;25.90;;;281.90;2176.00;;;;;;4978219;28;20022;-88
2021/04/02 03:15:14;;;;;;;46.63;28.17;;;282.00;2201.60;;;;;;4979989;28;20065;-89
2021/04/02 03:17:54;;;;;;;43.85;24.85;;;282.00;2176.00;;;;;;4984009;28;20089;-88
2021/04/02 03:20:23;;;;;;;38.88;24.73;;;282.20;2150.40;;;;;;4984274;28;20030;-86
2021/04/02 03:22:53;;;;;;;41.38;25.00;;;282.20;2176.00;;;;;;4985500;28;20026;-86
2021/04/02 03:25:21;;;;;;;36.55;23.17;;;282.00;2176.00;;;;;;5003412;28;20533;-87
2021/04/02 03:27:48;;;;;;;36.17;21.48;;;282.00;2201.60;;;;;;5004212;28;20034;-87
2021/04/02 03:30:17;;;;;;;39.78;24.17;;;281.70;2176.00;;;;;;5001767;28;20027;-86
2021/04/02 03:32:48;;;;;;;47.25;26.67;;;281.70;2227.20;;;;;;4990022;28;20116;-88
2021/04/02 03:35:19;;;;;;;44.45;25.33;;;281.70;2252.80;;;;;;4982313;28;20046;-88
2021/04/02 03:37:54;;;;;;;43.17;27.92;;;281.60;2252.80;;;;;;4981450;28;20394;-88
2021/04/02 03:40:23;;;;;;;36.80;24.88;;;256.90;2227.20;;;;;;4981853;28;20030;-89
2021/04/02 03:42:54;;;;;;;41.75;25.35;;;281.70;2227.20;;;;;;4981360;28;20050;-87
2021/04/02 03:45:23;;;;;;;43.15;26.65;;;281.90;2201.60;;;;;;4981585;28;20030;-87
2021/04/02 03:47:52;;;;;;;37.92;24.63;;;282.00;2176.00;;;;;;4980909;28;20041;-88
2021/04/02 03:50:38;;;;;;;45.38;27.70;;;281.70;2227.20;;;;;;4980898;28;20120;-88
2021/04/02 03:53:29;;;;;;;43.53;26.50;;;281.60;2227.20;;;;;;4980752;28;20065;-88
2021/04/02 03:56:06;;;;;;;44.33;26.15;;;256.90;2227.20;;;;;;4980847;28;20046;-88
2021/04/02 03:58:39;;;;;;;44.35;26.23;;;281.60;2227.20;;;;;;4981171;28;20389;-89
2021/04/02 04:01:11;;;;;;;49.05;26.58;;;281.60;2227.20;;;;;;4980931;28;20053;-88
2021/04/02 04:03:44;;;;;;;47.60;27.48;;;281.70;2201.60;;;;;;4980633;28;20089;-92
2021/04/02 04:06:14;;;;;;;48.55;28.40;;;281.70;2227.20;;;;;;4980899;28;20026;-92
2021/04/02 04:08:42;;;;;;;47.85;27.17;;;281.70;2201.60;;;;;;4980303;28;20478;-87
2021/04/02 04:11:10;;;;;;;51.60;29.05;;;281.80;2176.00;;;;;;4981036;28;20049;-88
2021/04/02 04:13:38;;;;;;;54.20;32.67;;;281.60;2227.20;;;;;;4980517;28;20030;-89
2021/04/02 04:16:06;;;;;;;49.47;29.20;;;281.80;2201.60;;;;;;4980696;28;20092;-88
2021/04/02 04:18:36;;;;;;;57.58;33.83;;;281.80;2176.00;;;;;;4980778;28;20033;-87
2021/04/02 04:21:05;;;;;;;41.45;29.20;;;281.60;2252.80;;;;;;4996859;28;20034;-91
2021/04/02 04:23:32;;;;;;;42.40;27.83;;;256.80;2252.80;;;;;;4996342;28;20023;-88
2021/04/02 04:26:11;;;;;;;47.85;28.23;;;256.70;2252.80;;;;;;4981951;28;20037;-88
2021/04/02 04:28:42;;;;;;;48.38;30.05;;;256.80;2252.80;;;;;;4984659;28;20026;-88
2021/04/02 04:31:22;;;;;;;51.30;32.03;;;256.90;2252.80;;;;;;4996593;28;20028;-88
2021/04/02 04:33:48;;;;;;;52.20;32.05;;;281.70;2252.80;;;;;;4993428;28;20069;-88
2021/04/02 04:36:15;;;;;;;47.78;28.88;;;281.80;2252.80;;;;;;4980677;28;20030;-89
2021/04/02 04:38:42;;;;;;;48.55;27.63;;;281.80;2227.20;;;;;;4979870;28;20049;-87
2021/04/02 04:41:24;;;;;;;52.72;34.45;;;281.90;2227.20;;;;;;4980566;28;20117;-87
2021/04/02 04:44:01;;;;;;;64.22;35.35;;;281.70;2278.40;;;;;;4980364;28;20026;-88
2021/04/02 04:46:31;;;;;;;53.78;31.27;;;281.60;2278.40;;;;;;4980468;28;20109;-88
2021/04/02 04:48:57;;;;;;;50.90;30.60;;;281.80;2227.20;;;;;;4980485;28;20390;-88
2021/04/02 04:51:33;;;;;;;65.85;39.95;;;282.00;2227.20;;;;;;4979921;28;20026;-90
2021/04/02 04:54:00;;;;;;;60.00;37.30;;;281.90;2252.80;;;;;;4979756;28;20065;-88
2021/04/02 04:56:31;;;;;;;55.63;34.85;;;281.90;2252.80;;;;;;4979768;28;20033;-88
2021/04/02 04:59:02;;;;;;;47.50;30.88;;;282.10;2227.20;;;;;;4980112;28;20031;-87
2021/04/02 05:01:34;;;;;;;50.38;30.73;;;282.20;2201.60;;;;;;4979678;28;20141;-90
2021/04/02 05:04:01;;;;;;;57.30;32.85;;;282.30;2201.60;;;;;;4963182;28;20487;-90
2021/04/02 05:06:28;;;;;;;71.93;41.25;;;282.40;2201.60;;;;;;4972245;28;20046;-88
2021/04/02 05:08:54;;;;;;;71.13;43.13;;;282.50;2150.40;;;;;;4979661;28;20034;-84
2021/04/02 05:11:23;;;;;;;75.35;43.47;;;282.50;2176.00;;;;;;4980279;28;20027;-88
2021/04/02 05:14:00;;;;;;;60.35;38.60;;;282.30;2176.00;;;;;;4981225;28;20098;-89
2021/04/02 05:16:27;;;;;;;59.38;36.80;;;282.30;2201.60;;;;;;5002062;28;20102;-86
2021/04/02 05:18:56;;;;;;;61.88;37.85;;;282.40;2176.00;;;;;;5018496;28;20084;-86
2021/04/02 05:21:28;;;;;;;62.45;37.17;;;282.50;2176.00;;;;;;5002729;28;20042;-86
2021/04/02 05:23:54;;;;;;;56.78;34.08;;;307.30;2176.00;;;;;;5002243;28;20026;-86
2021/04/02 05:26:20;;;;;;;59.63;35.35;;;307.30;2176.00;;;;;;4986011;28;20014;-84
2021/04/02 05:28:48;;;;;;;65.43;39.30;;;307.50;2176.00;;;;;;4986822;28;20023;-85
2021/04/02 05:31:15;;;;;;;64.38;38.55;;;307.50;2124.80;;;;;;4984912;28;20026;-85
2021/04/02 05:33:41;;;;;;;57.35;36.08;;;307.50;2124.80;;;;;;4983047;28;20070;-86
2021/04/02 05:36:07;;;;;;;46.75;28.80;;;307.60;2150.40;;;;;;4984113;28;20026;-86
2021/04/02 05:38:35;;;;;;;51.47;30.67;;;307.60;2150.40;;;;;;4981691;28;20031;-86
2021/04/02 05:41:07;;;;;;;50.15;31.38;;;307.70;2124.80;;;;;;4982813;28;20026;-87
2021/04/02 05:43:55;;;;;;;60.83;36.70;;;307.80;2099.20;;;;;;4982192;28;20030;-88
2021/04/02 05:46:24;;;;;;;66.22;40.92;;;307.90;2099.20;;;;;;4982882;28;20046;-89
2021/04/02 05:49:07;;;;;;;60.42;35.38;;;308.00;2099.20;;;;;;4997863;23;20058;-86
2021/04/02 05:51:36;;;;;;;54.30;34.60;;;308.10;2073.60;;;;;;4996742;28;20145;-87
2021/04/02 05:54:07;;;;;;;97.57;47.08;;;332.80;2124.80;;;;;;4998108;28;20426;-87
2021/04/02 05:56:33;;;;;;;92.40;45.38;;;332.80;2099.20;;;;;;4996522;28;20040;-86
2021/04/02 05:58:59;;;;;;;70.75;38.20;;;332.90;2073.60;;;;;;4995166;28;20041;-86
2021/04/02 06:01:25;;;;;;;70.43;36.85;;;332.80;2099.20;;;;;;4992996;28;20044;-84
2021/04/02 06:03:58;;;;;;;92.75;46.15;;;332.80;2150.40;;;;;;5004844;28;20025;-87
2021/04/02 06:06:24;;;;;;;89.97;48.75;;;332.90;2099.20;;;;;;5014424;28;20025;-91
2021/04/02 06:08:53;;;;;;;83.00;49.95;;;308.10;2099.20;;;;;;5014079;28;20389;-94
2021/04/02 06:11:19;;;;;;;85.88;45.05;;;308.10;2124.80;;;;;;5014367;28;20053;-87
2021/04/02 06:13:45;;;;;;;83.00;47.08;;;308.10;2124.80;;;;;;5014306;28;20378;-86
2021/04/02 06:16:14;;;;;;;73.13;44.63;;;307.90;2150.40;;;;;;5016034;28;20105;-85
2021/04/02 06:18:55;;;;;;;73.07;42.35;;;307.60;2176.00;;;;;;5014345;28;20092;-86
2021/04/02 06:21:25;;;;;;;67.97;39.15;;;307.50;2201.60;;;;;;5014095;28;20025;-85
2021/04/02 06:23:50;;;;;;;59.35;40.25;;;307.50;2201.60;;;;;;5013911;28;20022;-85
2021/04/02 06:26:25;;;;;;;66.55;40.78;;;307.60;2176.00;;;;;;5007653;28;20030;-85
2021/04/02 06:28:52;;;;;;;91.70;52.75;;;307.60;2201.60;;;;;;5020799;28;20029;-87
2021/04/02 06:31:19;;;;;;;84.28;51.10;;;307.70;2201.60;;;;;;5014357;28;20069;-85
2021/04/02 06:33:53;;;;;;;77.60;44.58;;;307.70;2227.20;;;;;;4993758;28;20038;-86
2021/04/02 06:36:30;;;;;;;76.40;49.08;;;307.40;2278.40;;;;;;4996986;28;20105;-85
2021/04/02 06:38:58;;;;;;;78.10;46.15;;;307.60;2304.00;;;;;;5004524;28;20022;-86
2021/04/02 06:41:26;;;;;;;97.97;60.60;;;307.60;2304.00;;;;;;5013711;28;20041;-86
2021/04/02 06:44:00;;;;;;;94.78;58.40;;;307.60;2304.00;;;;;;5003138;28;20034;-85
2021/04/02 06:46:37;;;;;;;88.13;60.28;;;307.60;2304.00;;;;;;5001622;28;20054;-87
2021/04/02 06:49:09;;;;;;;90.72;59.67;;;307.70;2304.00;;;;;;4993217;28;20058;-87
2021/04/02 06:51:45;;;;;;;103.07;60.88;;;307.70;2304.00;;;;;;4995449;28;20094;-87
2021/04/02 06:54:14;;;;;;;161.30;97.38;;;307.70;2304.00;;;;;;4993914;28;20030;-86
2021/04/02 06:56:44;;;;;;;134.65;88.10;;;307.50;2304.00;;;;;;4994900;22;20059;-88
2021/04/02 06:59:17;;;;;;;125.45;82.53;;;307.20;2304.00;;;;;;4987545;28;20037;-88
2021/04/02 07:01:47;;;;;;;127.45;82.28;;;282.50;2278.40;;;;;;5015146;28;20076;-88
2021/04/02 07:04:16;;;;;;;102.15;67.30;;;307.20;2304.00;;;;;;4994857;28;20393;-90
2021/04/02 07:06:43;;;;;;;61.05;40.50;;;282.40;2278.40;;;;;;4997196;28;20025;-88
2021/04/02 07:09:10;;;;;;;40.33;28.98;;;307.30;2304.00;;;;;;5014913;28;20018;-85
2021/04/02 07:11:38;;;;;;;29.10;20.13;;;307.60;2304.00;;;;;;4984378;28;20042;-87
2021/04/02 07:14:07;;;;;;;24.40;18.63;;;307.80;2304.00;;;;;;4997329;28;20047;-84
2021/04/02 07:16:34;;;;;;;27.20;18.70;;;308.00;2304.00;;;;;;4997253;28;20018;-84
2021/04/02 07:19:03;;;;;;;23.60;17.52;;;308.00;2304.00;;;;;;4997354;28;20092;-87
2021/04/02 07:21:30;;;;;;;27.27;16.50;;;308.10;2304.00;;;;;;5002110;28;20116;-85
2021/04/02 07:24:24;;;;;;;23.35;17.17;;;332.90;2329.60;;;;;;4998180;28;20026;-83
2021/04/02 07:26:53;;;;;;;27.77;18.15;;;332.90;2329.60;;;;;;5000295;28;20083;-82
2021/04/02 07:29:21;;;;;;;28.95;17.55;;;333.00;2329.60;;;;;;4999960;28;20108;-85
2021/04/02 07:31:49;;;;;;;24.40;19.00;;;333.10;2329.60;;;;;;4999547;28;20026;-82
2021/04/02 07:34:16;;;;;;;35.20;25.98;;;333.50;2329.60;;;;;;4999701;28;20034;-82
2021/04/02 07:36:45;;;;;;;41.58;28.88;;;333.00;2329.60;;;;;;4999699;28;20072;-85
2021/04/02 07:39:20;;;;;;;51.35;34.70;;;333.10;2329.60;;;;;;4985096;28;20050;-83
2021/04/02 07:42:07;;;;;;;74.65;49.05;;;332.90;2329.60;;;;;;4994527;28;20030;-85
2021/04/02 07:44:55;;;;;;;73.00;50.80;;;308.00;2304.00;;;;;;4969583;28;20034;-86
2021/04/02 07:47:28;;;;;;;70.50;50.30;;;307.70;2304.00;;;;;;4976846;28;20032;-83
2021/04/02 07:50:02;;;;;;;70.90;46.00;;;307.80;2304.00;;;;;;4976808;28;20033;-87
2021/04/02 07:52:35;;;;;;;62.47;41.70;;;307.80;2304.00;;;;;;4976557;28;20053;-80
2021/04/02 07:55:09;;;;;;;61.63;41.78;;;307.80;2304.00;;;;;;4992870;28;20030;-87
2021/04/02 07:57:56;;;;;;;61.17;41.00;;;307.80;2304.00;;;;;;4986876;28;20051;-87
2021/04/02 08:00:26;;;;;;;60.33;39.33;;;307.90;2304.00;;;;;;4974162;28;20039;-87
2021/04/02 08:03:07;;;;;;;68.57;43.85;;;308.10;2304.00;;;;;;4961789;28;20027;-87
2021/04/02 08:05:33;;;;;;;109.97;73.65;;;308.00;2304.00;;;;;;4977256;28;20030;-87
2021/04/02 08:08:01;;;;;;;78.07;52.30;;;308.00;2304.00;;;;;;4961122;28;20372;-87
2021/04/02 08:10:37;;;;;;;86.43;56.55;;;307.90;2304.00;;;;;;4975452;28;20471;-93
2021/04/02 08:13:16;;;;;;;77.35;50.30;;;307.80;2304.00;;;;;;4977441;28;20035;-87
2021/04/02 08:15:43;;;;;;;75.57;54.17;;;307.80;2304.00;;;;;;4976554;28;20110;-88
2021/04/02 08:18:25;;;;;;;73.60;50.85;;;307.90;2304.00;;;;;;4977298;28;20023;-87
2021/04/02 08:20:55;;;;;;;61.75;45.85;;;307.80;2304.00;;;;;;4977946;28;20027;-87
2021/04/02 08:23:23;;;;;;;63.47;48.35;;;307.70;2304.00;;;;;;4978090;28;20109;-91
2021/04/02 08:26:01;;;;;;;74.35;49.72;;;307.50;2304.00;;;;;;4978197;28;20033;-86
2021/04/02 08:28:27;;;;;;;72.47;49.00;;;307.70;2304.00;;;;;;4977336;28;20085;-85
2021/04/02 08:31:06;;;;;;;89.63;57.72;;;307.90;2304.00;;;;;;4976940;28;20027;-88
2021/04/02 08:33:32;;;;;;;83.70;53.80;;;307.90;2304.00;;;;;;4977523;28;20475;-87
2021/04/02 08:36:04;;;;;;;80.32;54.08;;;307.90;2304.00;;;;;;4977687;28;20085;-83
2021/04/02 08:38:30;;;;;;;71.80;46.47;;;332.90;2329.60;;;;;;4976489;28;20030;-84
2021/04/02 08:41:21;;;;;;;61.72;43.55;;;333.30;2329.60;;;;;;4976593;28;20125;-85
2021/04/02 08:43:47;;;;;;;59.58;43.70;;;358.40;2329.60;;;;;;4975977;28;20054;-87
2021/04/02 08:46:17;;;;;;;68.82;46.80;;;333.70;2329.60;;;;;;4976631;28;20112;-82
2021/04/02 08:48:47;;;;;;;821.50;473.38;;;358.50;2329.60;;;;;;4977706;28;20031;-86
2021/04/02 08:51:20;;;;;;;95.80;58.95;;;359.00;2329.60;;;;;;4980854;28;20062;-88
2021/04/02 08:53:46;;;;;;;57.38;40.80;;;359.20;2329.60;;;;;;4978242;28;20027;-86
2021/04/02 08:56:22;;;;;;;61.67;42.40;;;359.10;2329.60;;;;;;4981947;28;20031;-89
2021/04/02 08:58:55;;;;;;;58.30;42.92;;;359.10;2329.60;;;;;;4984033;28;20023;-89
2021/04/02 09:01:30;;;;;;;55.20;43.17;;;358.50;2329.60;;;;;;4984514;28;20038;-89
2021/04/02 09:03:57;;;;;;;55.92;42.15;;;333.70;2329.60;;;;;;4988611;28;20036;-87
2021/04/02 09:06:32;;;;;;;72.93;49.17;;;358.40;2329.60;;;;;;5002510;28;20022;-87
2021/04/02 09:09:12;;;;;;;77.43;47.58;;;358.60;2329.60;;;;;;5000703;28;20080;-88
2021/04/02 09:11:38;;;;;;;56.75;40.83;;;358.60;2329.60;;;;;;5000787;28;20022;-82
2021/04/02 09:14:11;;;;;;;67.20;43.92;;;358.50;2329.60;;;;;;4997148;28;20046;-90
2021/04/02 09:16:39;;;;;;;73.28;50.40;;;358.60;2329.60;;;;;;4990276;28;20038;-88
2021/04/02 09:19:33;;;;;;;73.47;50.00;;;358.50;2329.60;;;;;;4990547;28;20026;-88
2021/04/02 09:29:45;;;;;;;76.15;53.03;;;358.80;2329.60;;;;;;4966848;28;20071;-89
2021/04/02 09:32:14;;;;;;;80.03;54.90;;;358.90;2329.60;;;;;;4958243;28;20139;-89
2021/04/02 09:34:52;;;;;;;75.43;52.47;;;358.80;2329.60;;;;;;4958678;28;20041;-87
2021/04/02 09:37:18;;;;;;;254.45;125.10;;;359.10;2329.60;;;;;;4977881;28;20027;-87
2021/04/02 09:39:45;;;;;;;228.20;110.47;;;384.50;2329.60;;;;;;4977531;28;20042;-86
2021/04/02 09:42:42;;;;;;;213.43;99.63;;;409.80;2355.20;;;;;;4974199;28;20039;-86
2021/04/02 09:45:10;;;;;;;185.55;91.60;;;410.40;2355.20;;;;;;4957693;28;20222;-87
2021/04/02 09:47:54;;;;;;;78.47;50.72;;;410.50;2304.00;;;;;;4958168;28;20038;-85
2021/04/02 09:50:21;;;;;;;145.45;71.15;;;410.50;2329.60;;;;;;4958447;28;20517;-86
2021/04/02 09:52:47;;;;;;;76.40;44.33;;;435.40;2304.00;;;;;;4946696;29;20066;-87
2021/04/02 09:55:16;;;;;;;82.68;46.97;;;435.50;2252.80;;;;;;4953268;28;20043;-88
2021/04/02 09:57:53;;;;;;;95.65;55.17;;;435.30;2227.20;;;;;;4958431;28;20034;-88
2021/04/02 10:00:19;;;;;;;77.18;46.00;;;435.40;2252.80;;;;;;4955700;29;20032;-89
2021/04/02 10:02:45;;;;;;;52.47;35.22;;;435.50;2304.00;;;;;;4938504;29;20130;-90
2021/04/02 10:05:23;;;;;;;63.92;41.97;;;435.60;2278.40;;;;;;4939059;29;20123;-88
2021/04/02 10:07:49;;;;;;;68.45;39.47;;;435.80;2201.60;;;;;;4938438;29;20046;-89
2021/04/02 10:10:15;;;;;;;62.38;40.53;;;460.80;2201.60;;;;;;4939024;29;20086;-89
2021/04/02 10:12:47;;;;;;;52.17;32.88;;;436.10;2252.80;;;;;;4939264;29;20035;-89
2021/04/02 10:15:33;;;;;;;50.38;31.42;;;461.00;2176.00;;;;;;4938983;29;20043;-88
2021/04/02 10:17:59;;;;;;;48.00;31.70;;;461.10;2124.80;;;;;;4938811;29;20034;-89
2021/04/02 10:20:33;;;;;;;72.30;39.65;;;461.20;2176.00;;;;;;4938947;29;20040;-89
2021/04/02 10:22:59;;;;;;;64.13;34.90;;;461.30;2124.80;;;;;;4938579;29;20019;-89
2021/04/02 10:25:25;;;;;;;50.78;32.50;;;461.30;2124.80;;;;;;4937610;29;20170;-88
2021/04/02 10:27:50;;;;;;;35.78;25.85;;;461.50;2099.20;;;;;;4916066;29;20103;-89
2021/04/02 10:30:23;;;;;;;45.10;25.92;;;461.60;2176.00;;;;;;4915488;29;20040;-89
2021/04/02 10:33:07;;;;;;;34.88;21.58;;;486.40;2073.60;;;;;;4926412;29;20130;-88
2021/04/02 10:38:36;;;;;;;28.02;20.05;;;486.60;2022.40;;;;;;4959050;29;20045;-89
2021/04/02 10:41:14;;;;;;;28.33;19.70;;;486.70;2048.00;;;;;;4941777;29;20031;-89
2021/04/02 10:43:45;;;;;;;36.97;22.10;;;486.60;2048.00;;;;;;4940099;29;20035;-89
2021/04/02 10:46:14;;;;;;;30.27;21.70;;;486.70;2048.00;;;;;;4937078;29;20039;-89
2021/04/02 10:48:52;;;;;;;26.65;18.98;;;486.70;2048.00;;;;;;4939163;29;20031;-89
2021/04/02 10:51:18;;;;;;;21.73;16.88;;;486.80;1971.20;;;;;;4939052;29;20027;-88
2021/04/02 10:54:00;;;;;;;37.65;25.27;;;486.80;1971.20;;;;;;4938332;29;20036;-88
2021/04/02 10:56:44;;;;;;;24.83;15.57;;;486.90;1971.20;;;;;;4954765;23;20601;-90
2021/04/02 10:59:11;;;;;;;26.80;19.42;;;486.90;1920.00;;;;;;5016826;28;20120;-90
2021/04/02 11:01:40;;;;;;;20.08;13.98;;;486.90;1920.00;;;;;;5033802;28;20032;-90
2021/04/02 11:04:06;;;;;;;33.03;16.13;;;487.00;1920.00;;;;;;5033473;28;20021;-90
2021/04/02 11:06:31;;;;;;;24.10;15.15;;;487.00;1894.40;;;;;;5033530;28;20350;-90
2021/04/02 11:08:57;;;;;;;12.45;8.93;;;486.80;1817.60;;;;;;5033299;28;20041;-89
2021/04/02 11:11:23;;;;;;;14.75;10.40;;;486.50;1766.40;;;;;;5033421;28;20032;-89
2021/04/02 11:13:54;;;;;;;14.43;8.93;;;486.50;1817.60;;;;;;5033232;28;20044;-89
2021/04/02 11:16:29;;;;;;;16.25;8.45;;;486.50;1792.00;;;;;;5033550;28;20021;-89
2021/04/02 11:18:58;;;;;;;14.18;9.95;;;486.50;1766.40;;;;;;5034143;28;20104;-89
2021/04/02 11:21:33;;;;;;;13.13;9.00;;;486.70;1792.00;;;;;;5033657;28;20469;-90
2021/04/02 11:23:59;;;;;;;14.30;8.48;;;486.80;1715.20;;;;;;5033879;28;20025;-88
2021/04/02 11:26:34;;;;;;;13.13;8.00;;;486.90;1740.80;;;;;;5541362;23;20052;-89
2021/04/02 11:29:08;;;;;;;12.52;8.75;;;486.80;1689.60;;;;;;5013506;28;20076;-89
2021/04/02 11:31:40;;;;;;;19.85;12.13;;;486.80;1664.00;;;;;;5013746;28;20054;-88
2021/04/02 11:34:12;;;;;;;18.45;9.65;;;486.80;1664.00;;;;;;5013811;28;20382;-89
2021/04/02 11:42:13;;;;;;;18.33;10.85;;;486.80;1689.60;;;;;;5040265;28;20539;-88
2021/04/02 11:44:39;;;;;;;16.83;8.43;;;486.80;1638.40;;;;;;5021576;28;20047;-88
2021/04/02 11:47:09;;;;;;;19.85;12.93;;;486.90;1638.40;;;;;;5039557;28;20017;-89
2021/04/02 11:49:50;;;;;;;20.42;13.30;;;487.10;1587.20;;;;;;5021544;28;20025;-88
2021/04/02 11:52:16;;;;;;;14.57;8.95;;;487.10;1612.80;;;;;;5021419;28;20021;-88
2021/04/02 11:54:48;;;;;;;22.85;11.15;;;487.30;1664.00;;;;;;5020853;28;20384;-88
2021/04/02 11:57:13;;;;;;;21.92;14.52;;;512.00;1612.80;;;;;;5022550;28;20029;-88
2021/04/02 11:59:39;;;;;;;22.27;14.40;;;512.20;1638.40;;;;;;5021858;28;20029;-88
2021/04/02 12:02:05;;;;;;;18.95;10.75;;;512.40;1561.60;;;;;;5022725;28;20025;-88
2021/04/02 12:04:31;;;;;;;20.27;12.75;;;512.50;1510.40;;;;;;5027045;28;20381;-87
2021/04/02 12:06:56;;;;;;;22.33;14.70;;;512.70;1536.00;;;;;;5032405;28;20025;-88
2021/04/02 12:09:22;;;;;;;18.20;9.50;;;512.90;1561.60;;;;;;5033522;28;20032;-87
2021/04/02 12:12:00;;;;;;;13.65;8.38;;;512.80;1484.80;;;;;;5031759;28;20035;-85
2021/04/02 12:14:26;;;;;;;11.82;7.68;;;512.80;1510.40;;;;;;5043310;28;20037;-87
2021/04/02 12:17:01;;;;;;;14.32;10.57;;;512.90;1484.80;;;;;;5020730;28;20053;-88
2021/04/02 12:19:27;;;;;;;16.80;10.23;;;537.80;1561.60;;;;;;5022351;28;20053;-90
2021/04/02 12:21:59;;;;;;;18.00;10.93;;;512.80;1587.20;;;;;;5026867;28;20060;-88
2021/04/02 12:27:13;;;;;;;17.38;10.00;;;537.80;1587.20;;;;;;5602983;22;20318;-90
2021/04/02 12:29:49;;;;;;;17.83;10.85;;;537.90;1536.00;;;;;;5020374;28;20029;-87
2021/04/02 12:32:21;;;;;;;23.05;12.98;;;537.90;1510.40;;;;;;5026934;28;20026;-89
2021/04/02 12:34:46;;;;;;;33.85;19.80;;;537.80;1536.00;;;;;;5030581;28;20033;-90
2021/04/02 12:37:16;;;;;;;22.77;13.02;;;537.70;1510.40;;;;;;5031681;28;20080;-89
2021/04/02 12:39:42;;;;;;;29.58;15.68;;;537.70;1484.80;;;;;;5031130;28;20044;-86